createdAt,value
2023-02-12T00:05:54.338Z,3.61
2023-02-12T00:17:19.236Z,3.63
2023-02-12T00:28:42.958Z,3.64
2023-02-12T00:51:39.388Z,3.65
2023-02-12T01:02:46.187Z,3.59
2023-02-12T01:13:54.447Z,3.48
2023-02-12T01:25:20.770Z,3.48
2023-02-12T01:36:44.557Z,3.57
2023-02-12T01:48:08.129Z,3.65
2023-02-12T01:59:32.868Z,3.72
2023-02-12T02:10:42.937Z,3.70
2023-02-12T02:22:03.049Z,3.66
2023-02-12T02:33:31.278Z,3.70
2023-02-12T02:44:40.141Z,3.72
2023-02-12T02:55:58.801Z,3.66
2023-02-12T03:07:34.605Z,3.68
2023-02-12T03:18:54.939Z,3.63
2023-02-12T03:30:02.389Z,3.65
2023-02-12T03:41:28.383Z,3.65
2023-02-12T03:52:53.073Z,3.65
2023-02-12T04:04:07.445Z,3.47
2023-02-12T04:15:40.820Z,3.28
2023-02-12T04:27:17.614Z,3.24
2023-02-12T04:38:51.492Z,3.37
2023-02-12T04:50:08.470Z,3.39
2023-02-12T05:01:33.179Z,3.31
2023-02-12T05:12:57.943Z,3.23
2023-02-12T05:24:35.107Z,3.22
2023-02-12T05:35:59.847Z,3.26
2023-02-12T05:47:17.652Z,3.06
2023-02-12T05:58:42.919Z,2.90
2023-02-12T06:10:01.142Z,2.82
2023-02-12T06:21:19.137Z,2.90
2023-02-12T06:32:33.640Z,2.96
2023-02-12T06:43:59.009Z,2.98
2023-02-12T06:54:52.647Z,3.04
2023-02-12T07:06:17.454Z,3.06
2023-02-12T07:16:37.144Z,3.17
2023-02-12T07:27:08.007Z,3.20
2023-02-12T07:38:06.118Z,3.19
2023-02-12T07:49:30.907Z,3.26
2023-02-12T08:00:46.733Z,3.40
2023-02-12T08:11:52.766Z,3.44
2023-02-12T08:23:07.645Z,3.78
2023-02-12T08:34:34.518Z,3.95
2023-02-12T08:44:41.324Z,3.95
2023-02-12T08:55:55.288Z,4.14
2023-02-12T09:06:42.146Z,4.19
2023-02-12T09:18:05.726Z,3.85
2023-02-12T09:29:11.459Z,3.65
2023-02-12T09:40:26.246Z,3.34
2023-02-12T09:51:11.047Z,3.16
2023-02-12T10:02:25.889Z,3.27
2023-02-12T10:13:52.327Z,3.85
2023-02-12T10:25:06.360Z,4.34
2023-02-12T10:36:32.692Z,4.64
2023-02-12T10:47:40.384Z,5.07
2023-02-12T10:58:25.944Z,5.36
2023-02-12T11:09:41.846Z,5.71
2023-02-12T11:20:44.094Z,5.97
2023-02-12T11:31:42.150Z,6.22
2023-02-12T11:42:36.339Z,6.79
2023-02-12T11:53:37.654Z,7.13
2023-02-12T12:04:45.288Z,6.93
2023-02-12T12:16:08.337Z,7.06
2023-02-12T12:27:36.838Z,6.26
2023-02-12T12:39:01.346Z,5.98
2023-02-12T12:50:41.263Z,5.78
2023-02-12T13:01:41.258Z,5.58
2023-02-12T13:13:09.736Z,5.48
2023-02-12T13:24:31.362Z,5.50
2023-02-12T13:35:57.071Z,5.49
2023-02-12T13:47:33.643Z,5.56
2023-02-12T13:58:52.269Z,5.40
2023-02-12T14:09:52.892Z,5.03
2023-02-12T14:21:26.142Z,4.76
2023-02-12T14:32:51.878Z,4.61
2023-02-12T14:44:27.395Z,4.46
2023-02-12T14:55:51.484Z,4.23
2023-02-12T15:07:13.165Z,3.90
2023-02-12T15:18:30.418Z,3.54
2023-02-12T15:29:48.624Z,3.17
2023-02-12T15:41:15.288Z,2.93
2023-02-12T15:52:41.266Z,2.75
2023-02-12T16:04:10.712Z,2.58
2023-02-12T16:15:34.787Z,2.28
2023-02-12T16:27:02.253Z,2.07
2023-02-12T16:38:44.070Z,2.02
2023-02-12T16:50:12.312Z,1.74
2023-02-12T17:01:33.694Z,1.41
2023-02-12T17:13:02.038Z,1.28
2023-02-12T17:24:18.326Z,1.19
2023-02-12T17:35:24.192Z,1.11
2023-02-12T17:46:50.394Z,0.96
2023-02-12T17:58:18.031Z,0.79
2023-02-12T18:09:45.568Z,0.67
2023-02-12T18:20:44.932Z,0.31
2023-02-12T18:31:57.431Z,0.03
2023-02-12T18:42:52.392Z,-0.13
2023-02-12T18:54:01.233Z,-0.29
2023-02-12T19:05:29.289Z,-0.39
2023-02-12T19:16:49.796Z,-0.53
2023-02-12T19:28:25.430Z,-0.63
2023-02-12T19:39:41.176Z,-0.86
2023-02-12T19:50:58.207Z,-0.97
2023-02-12T20:02:16.727Z,-1.12
2023-02-12T20:13:44.579Z,-1.14
2023-02-12T20:25:14.941Z,-1.35
2023-02-12T20:36:21.235Z,-1.53
2023-02-12T20:47:33.297Z,-1.58
2023-02-12T20:59:03.201Z,-1.42
2023-02-12T21:10:30.117Z,-1.29
2023-02-12T21:22:02.643Z,-1.10
2023-02-12T21:33:28.663Z,-1.00
2023-02-12T21:44:46.842Z,-0.94
2023-02-12T21:56:11.994Z,-0.80
2023-02-12T22:07:39.525Z,-0.65
2023-02-12T22:18:57.044Z,-0.47
2023-02-12T22:30:04.799Z,-0.37
2023-02-12T22:41:27.837Z,-0.10
2023-02-12T22:52:43.520Z,0.16
2023-02-12T23:04:08.886Z,0.32
2023-02-12T23:15:08.745Z,0.38
2023-02-12T23:26:19.061Z,0.50
2023-02-12T23:37:43.975Z,0.50
2023-02-12T23:48:51.911Z,0.46
